Time,TemperatureF,DewpointF,PressureIn,WindDirection,WindDirectionDegrees,WindSpeedMPH,WindSpeedGustMPH,Humidity,HourlyPrecipIn,Conditions,Clouds,dailyrainin,SoftwareType,DateUTC
2013-09-03 00:00:00,71.4,47.1,29.74,WNW,292,0.0,3.0,42,0.00,,---,0.00,VWS V14.01,2013-09-03 04:00:00,
2013-09-03 00:15:00,71.2,47.0,29.74,WNW,292,0.0,0.0,42,0.00,,---,0.00,VWS V14.01,2013-09-03 04:15:00,
2013-09-03 00:30:00,71.0,46.8,29.73,WNW,292,0.0,0.0,42,0.00,,---,0.00,VWS V14.01,2013-09-03 04:30:00,
2013-09-03 00:45:00,70.8,46.6,29.73,WNW,292,0.0,0.0,42,0.00,,---,0.00,VWS V14.01,2013-09-03 04:45:00,
2013-09-03 01:00:00,70.6,46.4,29.73,WNW,292,0.0,1.0,42,0.00,,---,0.00,VWS V14.01,2013-09-03 05:00:00,
2013-09-03 01:15:00,70.3,46.2,29.73,WNW,292,0.0,3.0,42,0.00,,---,0.00,VWS V14.01,2013-09-03 05:15:00,
2013-09-03 01:30:00,70.7,47.1,29.74,NNW,338,1.0,8.0,43,0.00,,---,0.00,VWS V14.01,2013-09-03 05:30:00,
2013-09-03 01:45:00,70.9,47.3,29.73,NNW,338,0.0,3.0,43,0.00,,---,0.00,VWS V14.01,2013-09-03 05:45:00,
2013-09-03 02:00:00,71.0,47.4,29.73,NNW,338,0.0,0.0,43,0.00,,---,0.00,VWS V14.01,2013-09-03 06:00:00,
2013-09-03 02:15:00,70.9,47.3,29.72,NNW,338,0.0,1.0,43,0.00,,---,0.00,VWS V14.01,2013-09-03 06:15:00,
2013-09-03 02:30:00,71.0,47.4,29.72,NNW,338,0.0,3.0,43,0.00,,---,0.00,VWS V14.01,2013-09-03 06:30:00,
2013-09-03 02:45:00,71.2,48.2,29.72,NNW,338,0.0,1.0,44,0.00,,---,0.00,VWS V14.01,2013-09-03 06:45:00,
2013-09-03 03:00:00,71.3,48.3,29.71,NNW,338,0.0,1.0,44,0.00,,---,0.00,VWS V14.01,2013-09-03 07:00:00,
2013-09-03 03:15:00,71.3,48.3,29.71,NNW,338,0.0,0.0,44,0.00,,---,0.00,VWS V14.01,2013-09-03 07:15:00,
2013-09-03 03:30:00,71.3,48.3,29.71,NNW,338,0.0,1.0,44,0.00,,---,0.00,VWS V14.01,2013-09-03 07:30:00,
2013-09-03 03:45:00,71.3,48.3,29.72,NNW,338,0.0,1.0,44,0.00,,---,0.00,VWS V14.01,2013-09-03 07:45:00,
2013-09-03 04:00:00,71.3,48.3,29.71,NNW,338,0.0,0.0,44,0.00,,---,0.00,VWS V14.01,2013-09-03 08:00:00,
2013-09-03 04:15:00,71.4,48.4,29.71,NNW,338,0.0,1.0,44,0.00,,---,0.00,VWS V14.01,2013-09-03 08:15:00,
2013-09-03 04:30:00,71.3,48.3,29.71,NNW,338,0.0,1.0,44,0.00,,---,0.00,VWS V14.01,2013-09-03 08:30:00,
2013-09-03 04:45:00,71.3,48.9,29.71,NNW,338,0.0,0.0,45,0.00,,---,0.00,VWS V14.01,2013-09-03 08:45:00,
2013-09-03 05:00:00,71.4,49.0,29.71,NNW,338,0.0,0.0,45,0.00,,---,0.00,VWS V14.01,2013-09-03 09:00:00,
2013-09-03 05:15:00,71.4,49.0,29.71,NNW,338,0.0,0.0,45,0.00,,---,0.00,VWS V14.01,2013-09-03 09:15:00,
2013-09-03 05:30:00,71.4,49.0,29.71,NNW,338,0.0,0.0,45,0.00,,---,0.00,VWS V14.01,2013-09-03 09:30:00,
2013-09-03 05:45:00,71.4,49.0,29.71,NNW,338,0.0,0.0,45,0.00,,---,0.00,VWS V14.01,2013-09-03 09:45:00,
2013-09-03 06:00:00,71.4,49.0,29.72,NNW,338,0.0,0.0,45,0.00,,---,0.00,VWS V14.01,2013-09-03 10:00:00,
2013-09-03 06:15:00,71.5,49.1,29.73,NNW,338,0.0,0.0,45,0.00,,---,0.00,VWS V14.01,2013-09-03 10:15:00,
2013-09-03 06:30:00,71.5,49.1,29.74,NNW,338,0.0,2.0,45,0.00,,---,0.00,VWS V14.01,2013-09-03 10:30:00,
2013-09-03 06:45:00,71.6,49.2,29.74,NNW,338,0.0,1.0,45,0.00,,---,0.00,VWS V14.01,2013-09-03 10:45:00,
2013-09-03 07:00:00,71.6,49.2,29.75,NNW,338,0.0,0.0,45,0.00,,---,0.00,VWS V14.01,2013-09-03 11:00:00,
2013-09-03 07:15:00,71.5,49.1,29.75,NNW,338,0.0,0.0,45,0.00,,---,0.00,VWS V14.01,2013-09-03 11:15:00,
2013-09-03 07:30:00,71.7,49.2,29.75,NNW,338,0.0,1.0,45,0.00,,---,0.00,VWS V14.01,2013-09-03 11:30:00,
2013-09-03 07:45:00,71.7,49.2,29.75,NNW,338,0.0,0.0,45,0.00,,---,0.00,VWS V14.01,2013-09-03 11:45:00,
2013-09-03 08:00:00,71.9,49.4,29.75,NNW,338,0.0,4.0,45,0.00,,---,0.00,VWS V14.01,2013-09-03 12:00:00,
2013-09-03 08:15:00,71.4,49.0,29.76,NNW,338,2.0,6.0,45,0.00,,---,0.00,VWS V14.01,2013-09-03 12:15:00,
2013-09-03 08:30:00,71.6,49.2,29.76,NNW,338,1.0,6.0,45,0.00,,---,0.00,VWS V14.01,2013-09-03 12:30:00,
2013-09-03 08:45:00,71.7,49.2,29.76,NW,315,0.0,5.0,45,0.00,,---,0.00,VWS V14.01,2013-09-03 12:45:00,
2013-09-03 09:00:00,71.5,49.1,29.76,WNW,292,2.0,6.0,45,0.00,,---,0.00,VWS V14.01,2013-09-03 13:00:00,
2013-09-03 09:15:00,72.3,49.2,29.76,NW,315,1.0,6.0,44,0.00,,---,0.00,VWS V14.01,2013-09-03 13:15:00,
2013-09-03 10:15:00,73.8,48.7,29.78,North,360,7.0,11.0,41,2.79,,---,0.00,VWS V14.01,2013-09-03 14:15:00,
2013-09-03 10:21:00,74.0,49.5,29.78,North,360,5.0,10.0,42,2.79,,---,0.00,VWS V14.01,2013-09-03 14:21:00,
2013-09-03 10:22:00,74.0,49.5,29.78,North,10,0.0,10.0,42,2.79,,---,0.00,VWS V14.01,2013-09-03 14:22:00,
2013-09-03 10:27:00,74.1,49.6,29.78,NW,326,0.0,10.0,42,2.79,,---,0.00,VWS V14.01,2013-09-03 14:27:00,
2013-09-03 10:30:00,74.2,49.7,29.78,NW,323,7.0,10.0,42,2.79,,---,0.00,VWS V14.01,2013-09-03 14:30:00,
2013-09-03 10:32:00,74.1,50.2,29.78,WNW,300,3.0,7.0,43,0.00,,---,0.00,VWS V14.01,2013-09-03 14:32:00,
2013-09-03 10:37:00,74.0,50.1,29.78,NW,321,4.0,7.0,43,0.00,,---,0.00,VWS V14.01,2013-09-03 14:37:00,
2013-09-03 10:42:00,73.9,50.6,29.78,North,5,1.0,7.0,44,0.00,,---,0.00,VWS V14.01,2013-09-03 14:42:00,
2013-09-03 10:45:00,73.9,51.8,29.78,NW,313,3.0,10.0,46,0.00,,---,0.00,VWS V14.01,2013-09-03 14:45:00,
2013-09-03 10:47:00,73.8,51.8,29.78,NW,313,0.0,3.0,46,0.00,,---,0.00,VWS V14.01,2013-09-03 14:47:00,
2013-09-03 10:52:00,73.8,52.3,29.78,North,355,2.0,8.0,47,0.00,,---,0.00,VWS V14.01,2013-09-03 14:52:00,
2013-09-03 10:57:00,73.8,53.5,29.78,NW,325,1.0,10.0,49,0.00,,---,0.00,VWS V14.01,2013-09-03 14:57:00,
2013-09-03 11:00:00,73.8,53.5,29.78,NNW,338,4.0,10.0,49,0.00,,---,0.00,VWS V14.01,2013-09-03 15:00:00,
2013-09-03 11:02:00,73.8,53.5,29.78,NNW,345,2.0,7.0,49,0.00,,---,0.00,VWS V14.01,2013-09-03 15:02:00,
2013-09-03 11:07:00,73.8,53.5,29.78,NNW,348,0.0,8.0,49,0.00,,---,0.00,VWS V14.01,2013-09-03 15:07:00,
2013-09-03 11:12:00,74.0,54.2,29.79,West,276,0.0,9.0,50,0.00,,---,0.00,VWS V14.01,2013-09-03 15:12:00,
2013-09-03 11:15:00,74.0,54.7,29.79,NNW,342,1.0,9.0,51,0.00,,---,0.00,VWS V14.01,2013-09-03 15:15:00,
2013-09-03 11:17:00,74.0,54.7,29.79,NNW,332,3.0,4.0,51,0.00,,---,0.00,VWS V14.01,2013-09-03 15:17:00,
2013-09-03 11:22:00,73.8,55.6,29.79,NNW,345,5.0,12.0,53,0.00,,---,0.00,VWS V14.01,2013-09-03 15:22:00,
2013-09-03 11:27:00,73.7,56.0,29.79,WNW,298,4.0,12.0,54,0.00,,---,0.00,VWS V14.01,2013-09-03 15:27:00,
2013-09-03 11:30:00,73.9,56.2,29.79,NNW,344,6.0,12.0,54,0.00,,---,0.00,VWS V14.01,2013-09-03 15:30:00,
2013-09-03 11:32:00,74.0,56.8,29.79,WNW,301,5.0,7.0,55,0.00,,---,0.00,VWS V14.01,2013-09-03 15:32:00,
2013-09-03 11:37:00,74.4,57.2,29.78,NNW,337,5.0,9.0,55,0.00,,---,0.00,VWS V14.01,2013-09-03 15:37:00,
2013-09-03 11:42:00,74.6,58.4,29.78,North,355,0.0,9.0,57,0.00,,---,0.00,VWS V14.01,2013-09-03 15:42:00,
2013-09-03 11:45:00,74.6,58.9,29.79,North,360,1.0,9.0,58,0.00,,---,0.00,VWS V14.01,2013-09-03 15:45:00,
2013-09-03 11:47:00,74.6,58.4,29.79,NW,325,4.0,6.0,57,0.00,,---,0.00,VWS V14.01,2013-09-03 15:47:00,
2013-09-03 11:52:00,74.8,57.6,29.78,West,271,1.0,7.0,55,0.00,,---,0.00,VWS V14.01,2013-09-03 15:52:00,
2013-09-03 11:57:00,74.9,57.2,29.78,WNW,288,2.0,7.0,54,0.00,,---,0.00,VWS V14.01,2013-09-03 15:57:00,
2013-09-03 12:00:00,75.0,57.2,29.78,NW,306,3.0,7.0,54,0.00,,---,0.00,VWS V14.01,2013-09-03 16:00:00,
2013-09-03 12:02:00,75.0,57.2,29.78,NW,320,5.0,6.0,54,0.00,,---,0.00,VWS V14.01,2013-09-03 16:02:00,
2013-09-03 12:07:00,75.2,56.9,29.78,NNW,341,5.0,9.0,53,0.00,,---,0.00,VWS V14.01,2013-09-03 16:07:00,
2013-09-03 12:12:00,75.0,57.8,29.78,NW,310,3.0,12.0,55,0.00,,---,0.00,VWS V14.01,2013-09-03 16:12:00,
2013-09-03 12:15:00,75.1,58.3,29.78,WNW,297,7.0,12.0,56,0.00,,---,0.00,VWS V14.01,2013-09-03 16:15:00,
2013-09-03 12:18:00,75.2,58.9,29.78,NNW,338,3.0,8.0,57,0.00,,---,0.00,VWS V14.01,2013-09-03 16:18:00,
2013-09-03 12:23:00,75.6,60.8,29.78,NNE,26,2.0,9.0,60,0.00,,---,0.00,VWS V14.01,2013-09-03 16:23:00,
2013-09-03 12:28:00,76.3,61.9,29.78,WNW,298,7.0,9.0,61,0.00,,---,0.00,VWS V14.01,2013-09-03 16:28:00,
2013-09-03 12:30:00,76.3,62.3,29.78,NNW,332,10.0,13.0,62,0.00,,---,0.00,VWS V14.01,2013-09-03 16:30:00,
2013-09-03 12:33:00,76.2,62.2,29.78,WNW,298,4.0,15.0,62,0.00,,---,0.00,VWS V14.01,2013-09-03 16:33:00,
2013-09-03 12:38:00,75.9,62.0,29.79,NW,304,6.0,15.0,62,0.00,,---,0.00,VWS V14.01,2013-09-03 16:38:00,
2013-09-03 12:43:00,75.9,62.0,29.79,NW,315,0.0,15.0,62,0.00,,---,0.00,VWS V14.01,2013-09-03 16:43:00,
2013-09-03 12:45:00,75.8,61.9,29.78,WNW,301,5.0,15.0,62,0.00,,---,0.00,VWS V14.01,2013-09-03 16:45:00,
2013-09-03 12:48:00,75.9,62.0,29.79,NW,307,4.0,9.0,62,0.00,,---,0.00,VWS V14.01,2013-09-03 16:48:00,
2013-09-03 12:53:00,76.2,62.2,29.79,WNW,295,7.0,10.0,62,0.00,,---,0.00,VWS V14.01,2013-09-03 16:53:00,
2013-09-03 12:58:00,76.6,62.6,29.78,NW,318,7.0,11.0,62,0.00,,---,0.00,VWS V14.01,2013-09-03 16:58:00,
2013-09-03 13:00:00,76.8,62.8,29.78,WNW,288,5.0,11.0,62,0.00,,---,0.00,VWS V14.01,2013-09-03 17:00:00,
2013-09-03 13:03:00,76.9,62.4,29.78,NW,317,0.0,7.0,61,0.00,,---,0.00,VWS V14.01,2013-09-03 17:03:00,
2013-09-03 13:08:00,77.0,63.0,29.78,NNE,25,0.0,10.0,62,0.00,,---,0.00,VWS V14.01,2013-09-03 17:08:00,
2013-09-03 13:13:00,77.8,63.3,29.78,NW,323,3.0,10.0,61,0.00,,---,0.00,VWS V14.01,2013-09-03 17:13:00,
2013-09-03 13:15:00,77.7,63.2,29.78,NNW,327,1.0,10.0,61,0.00,,---,0.00,VWS V14.01,2013-09-03 17:15:00,
2013-09-03 13:18:00,77.4,62.9,29.78,North,5,0.0,5.0,61,0.00,,---,0.00,VWS V14.01,2013-09-03 17:18:00,
2013-09-03 13:23:00,77.1,62.6,29.78,West,262,9.0,9.0,61,0.00,,---,0.00,VWS V14.01,2013-09-03 17:23:00,
2013-09-03 13:28:00,77.2,62.7,29.78,NNW,329,7.0,13.0,61,0.00,,---,0.00,VWS V14.01,2013-09-03 17:28:00,
2013-09-03 13:30:00,76.9,62.4,29.79,NW,325,4.0,13.0,61,0.00,,---,0.00,VWS V14.01,2013-09-03 17:30:00,
2013-09-03 13:33:00,77.0,62.5,29.78,WNW,293,11.0,11.0,61,0.00,,---,0.00,VWS V14.01,2013-09-03 17:33:00,
2013-09-03 13:38:00,76.8,61.9,29.78,NW,313,0.0,12.0,60,0.00,,---,0.00,VWS V14.01,2013-09-03 17:38:00,
2013-09-03 13:43:00,77.4,62.4,29.78,NNW,327,0.0,12.0,60,0.00,,---,0.00,VWS V14.01,2013-09-03 17:43:00,
2013-09-03 13:45:00,77.7,62.7,29.78,NW,309,7.0,12.0,60,0.00,,---,0.00,VWS V14.01,2013-09-03 17:45:00,
2013-09-03 13:48:00,77.6,62.6,29.78,West,281,2.0,9.0,60,0.00,,---,0.00,VWS V14.01,2013-09-03 17:48:00,
2013-09-03 13:53:00,77.5,62.5,29.78,WSW,248,6.0,10.0,60,0.00,,---,0.00,VWS V14.01,2013-09-03 17:53:00,
2013-09-03 13:58:00,77.4,62.4,29.78,WNW,290,4.0,10.0,60,0.00,,---,0.00,VWS V14.01,2013-09-03 17:58:00,
2013-09-03 14:00:00,77.4,62.4,29.78,NW,322,3.0,10.0,60,0.00,,---,0.00,VWS V14.01,2013-09-03 18:00:00,
2013-09-03 14:03:00,77.4,62.4,29.78,NW,317,4.0,6.0,60,0.00,,---,0.00,VWS V14.01,2013-09-03 18:03:00,
2013-09-03 14:08:00,77.6,62.6,29.78,NW,313,4.0,10.0,60,0.00,,---,0.00,VWS V14.01,2013-09-03 18:08:00,
2013-09-03 14:13:00,78.3,63.3,29.78,SW,234,5.0,15.0,60,0.00,,---,0.00,VWS V14.01,2013-09-03 18:13:00,
2013-09-03 14:15:00,78.3,62.8,29.78,WSW,250,7.0,15.0,59,0.00,,---,0.00,VWS V14.01,2013-09-03 18:15:00,
2013-09-03 14:19:00,78.4,62.9,29.78,WNW,284,9.0,13.0,59,0.00,,---,0.00,VWS V14.01,2013-09-03 18:19:00,
2013-09-03 14:24:00,77.9,62.0,29.78,NW,325,3.0,13.0,58,0.00,,---,0.00,VWS V14.01,2013-09-03 18:24:00,
2013-09-03 14:29:00,78.1,62.6,29.78,NW,319,6.0,13.0,59,0.00,,---,0.00,VWS V14.01,2013-09-03 18:29:00,
2013-09-03 14:30:00,78.0,62.0,29.78,WSW,254,11.0,13.0,58,0.00,,---,0.00,VWS V14.01,2013-09-03 18:30:00,
2013-09-03 14:34:00,77.5,61.6,29.78,SW,227,9.0,14.0,58,0.00,,---,0.00,VWS V14.01,2013-09-03 18:34:00,
2013-09-03 14:39:00,77.6,62.2,29.78,NW,326,5.0,14.0,59,0.00,,---,0.00,VWS V14.01,2013-09-03 18:39:00,
2013-09-03 14:44:00,77.8,61.9,29.77,WNW,287,2.0,14.0,58,0.00,,---,0.00,VWS V14.01,2013-09-03 18:44:00,
2013-09-03 14:45:00,78.1,62.6,29.77,NNW,329,7.0,14.0,59,0.00,,---,0.00,VWS V14.01,2013-09-03 18:45:00,
2013-09-03 14:49:00,78.1,62.1,29.77,WNW,294,9.0,9.0,58,0.00,,---,0.00,VWS V14.01,2013-09-03 18:49:00,
2013-09-03 14:54:00,78.5,62.5,29.77,WNW,303,6.0,12.0,58,0.00,,---,0.00,VWS V14.01,2013-09-03 18:54:00,
2013-09-03 14:59:00,78.6,62.6,29.77,West,265,11.0,19.0,58,0.00,,---,0.00,VWS V14.01,2013-09-03 18:59:00,
2013-09-03 15:00:00,78.5,62.5,29.77,West,263,5.0,19.0,58,0.00,,---,0.00,VWS V14.01,2013-09-03 19:00:00,
2013-09-03 15:04:00,78.5,62.5,29.77,WNW,293,5.0,11.0,58,0.00,,---,0.00,VWS V14.01,2013-09-03 19:04:00,
2013-09-03 15:09:00,78.5,62.5,29.77,West,277,4.0,12.0,58,0.00,,---,0.00,VWS V14.01,2013-09-03 19:09:00,
2013-09-03 15:14:00,78.4,62.4,29.77,NW,308,7.0,14.0,58,0.00,,---,0.00,VWS V14.01,2013-09-03 19:14:00,
2013-09-03 15:15:00,78.1,62.1,29.76,WNW,300,5.0,14.0,58,0.00,,---,0.00,VWS V14.01,2013-09-03 19:15:00,
2013-09-03 15:19:00,77.9,62.0,29.76,West,272,4.0,11.0,58,0.00,,---,0.00,VWS V14.01,2013-09-03 19:19:00,
2013-09-03 15:24:00,78.6,62.6,29.76,WNW,298,7.0,14.0,58,0.00,,---,0.00,VWS V14.01,2013-09-03 19:24:00,
2013-09-03 15:29:00,78.9,62.4,29.76,West,268,2.0,14.0,57,0.00,,---,0.00,VWS V14.01,2013-09-03 19:29:00,
2013-09-03 15:30:00,79.1,62.6,29.76,West,277,5.0,14.0,57,0.00,,---,0.00,VWS V14.01,2013-09-03 19:30:00,
2013-09-03 15:34:00,78.9,62.4,29.76,NW,309,7.0,11.0,57,0.00,,---,0.00,VWS V14.01,2013-09-03 19:34:00,
2013-09-03 15:39:00,78.9,61.9,29.76,WNW,298,5.0,17.0,56,0.00,,---,0.00,VWS V14.01,2013-09-03 19:39:00,
2013-09-03 15:44:00,79.1,61.6,29.76,NW,304,12.0,17.0,55,0.00,,---,0.00,VWS V14.01,2013-09-03 19:44:00,
2013-09-03 15:45:00,79.3,61.8,29.75,SW,236,6.0,17.0,55,0.00,,---,0.00,VWS V14.01,2013-09-03 19:45:00,
2013-09-03 15:49:00,79.4,62.3,29.75,WNW,288,6.0,14.0,56,0.00,,---,0.00,VWS V14.01,2013-09-03 19:49:00,
2013-09-03 15:54:00,79.2,61.1,29.75,NNW,337,5.0,16.0,54,0.00,,---,0.00,VWS V14.01,2013-09-03 19:54:00,
2013-09-03 15:59:00,79.1,61.0,29.75,WNW,294,6.0,16.0,54,0.00,,---,0.00,VWS V14.01,2013-09-03 19:59:00,
2013-09-03 16:00:00,79.3,61.8,29.75,NW,308,6.0,16.0,55,0.00,,---,0.00,VWS V14.01,2013-09-03 20:00:00,
2013-09-03 16:04:00,79.7,60.5,29.75,WNW,289,0.0,14.0,52,0.00,,---,0.00,VWS V14.01,2013-09-03 20:04:00,
2013-09-03 16:09:00,79.9,60.7,29.75,North,11,9.0,15.0,52,0.00,,---,0.00,VWS V14.01,2013-09-03 20:09:00,
2013-09-03 16:14:00,79.6,61.0,29.75,NNW,343,12.0,17.0,53,0.00,,---,0.00,VWS V14.01,2013-09-03 20:14:00,
2013-09-03 16:15:00,79.5,60.3,29.75,NW,319,9.0,17.0,52,0.00,,---,0.00,VWS V14.01,2013-09-03 20:15:00,
2013-09-03 16:19:00,79.5,60.3,29.76,NNW,327,8.0,12.0,52,0.00,,---,0.00,VWS V14.01,2013-09-03 20:19:00,
2013-09-03 16:24:00,79.6,59.9,29.75,NNW,336,5.0,17.0,51,0.00,,---,0.00,VWS V14.01,2013-09-03 20:24:00,
2013-09-03 16:30:00,79.8,59.5,29.75,WNW,290,6.0,17.0,50,0.00,,---,0.00,VWS V14.01,2013-09-03 20:30:00,
2013-09-03 16:35:00,79.8,60.6,29.75,WNW,284,9.0,12.0,52,0.00,,---,0.00,VWS V14.01,2013-09-03 20:35:00,
2013-09-03 16:40:00,79.6,60.4,29.76,WNW,291,11.0,16.0,52,0.00,,---,0.00,VWS V14.01,2013-09-03 20:40:00,
2013-09-03 16:45:00,79.5,60.9,29.76,WNW,294,8.0,18.0,53,0.01,,---,0.01,VWS V14.01,2013-09-03 20:45:00,
2013-09-03 16:50:00,79.6,60.4,29.76,NW,317,9.0,13.0,52,0.01,,---,0.01,VWS V14.01,2013-09-03 20:50:00,
2013-09-03 16:55:00,79.6,60.4,29.76,NNW,329,13.0,15.0,52,0.01,,---,0.01,VWS V14.01,2013-09-03 20:55:00,
2013-09-03 17:00:00,79.5,59.8,29.76,WNW,296,6.0,16.0,51,0.01,,---,0.01,VWS V14.01,2013-09-03 21:00:00,
2013-09-03 17:05:00,79.5,60.9,29.77,WNW,294,4.0,14.0,53,0.01,,---,0.01,VWS V14.01,2013-09-03 21:05:00,
2013-09-03 17:10:00,79.6,59.9,29.77,WNW,294,9.0,14.0,51,0.01,,---,0.01,VWS V14.01,2013-09-03 21:10:00,
2013-09-03 17:15:00,79.5,59.8,29.76,NW,318,7.0,14.0,51,0.01,,---,0.01,VWS V14.01,2013-09-03 21:15:00,
2013-09-03 17:20:00,79.5,59.2,29.77,WNW,289,12.0,15.0,50,0.01,,---,0.01,VWS V14.01,2013-09-03 21:20:00,
2013-09-03 17:25:00,79.1,58.9,29.77,NNW,329,8.0,18.0,50,0.01,,---,0.01,VWS V14.01,2013-09-03 21:25:00,
2013-09-03 17:30:00,79.2,59.0,29.77,WNW,294,15.0,18.0,50,0.01,,---,0.01,VWS V14.01,2013-09-03 21:30:00,
2013-09-03 17:36:00,79.2,58.4,29.77,NW,317,6.0,13.0,49,0.01,,---,0.01,VWS V14.01,2013-09-03 21:36:00,
2013-09-03 17:41:00,79.1,57.8,29.78,NW,306,12.0,14.0,48,0.01,,---,0.01,VWS V14.01,2013-09-03 21:41:00,
2013-09-03 17:45:00,79.0,57.7,29.77,WNW,290,6.0,14.0,48,0.01,,---,0.01,VWS V14.01,2013-09-03 21:45:00,
2013-09-03 17:46:00,79.0,57.7,29.77,NW,305,9.0,14.0,48,0.01,,---,0.01,VWS V14.01,2013-09-03 21:46:00,
2013-09-03 17:51:00,78.9,58.1,29.78,NW,316,5.0,10.0,49,0.00,,---,0.01,VWS V14.01,2013-09-03 21:51:00,
2013-09-03 17:56:00,78.7,59.1,29.78,West,265,5.0,13.0,51,0.00,,---,0.01,VWS V14.01,2013-09-03 21:56:00,
2013-09-03 18:00:00,78.7,58.5,29.78,WNW,302,7.0,13.0,50,0.00,,---,0.01,VWS V14.01,2013-09-03 22:00:00,
2013-09-03 18:01:00,78.7,58.5,29.78,WNW,300,6.0,7.0,50,0.00,,---,0.01,VWS V14.01,2013-09-03 22:01:00,
2013-09-03 18:06:00,78.7,59.1,29.78,NW,315,6.0,9.0,51,0.00,,---,0.01,VWS V14.01,2013-09-03 22:06:00,
2013-09-03 18:11:00,78.7,59.6,29.78,WNW,293,5.0,9.0,52,0.00,,---,0.01,VWS V14.01,2013-09-03 22:11:00,
2013-09-03 18:15:00,78.5,58.9,29.78,West,273,7.0,17.0,51,0.00,,---,0.01,VWS V14.01,2013-09-03 22:15:00,
2013-09-03 18:16:00,78.4,58.8,29.78,NW,315,7.0,8.0,51,0.00,,---,0.01,VWS V14.01,2013-09-03 22:16:00,
2013-09-03 18:21:00,78.3,58.2,29.78,WNW,290,5.0,13.0,50,0.00,,---,0.01,VWS V14.01,2013-09-03 22:21:00,
2013-09-03 18:27:00,78.0,58.4,29.78,WNW,286,6.0,13.0,51,0.00,,---,0.01,VWS V14.01,2013-09-03 22:27:00,
2013-09-03 18:30:00,77.9,58.9,29.78,WNW,295,2.0,13.0,52,0.00,,---,0.01,VWS V14.01,2013-09-03 22:30:00,
2013-09-03 18:32:00,77.9,59.4,29.78,NNW,331,2.0,2.0,53,0.00,,---,0.01,VWS V14.01,2013-09-03 22:32:00,
2013-09-03 18:37:00,77.8,58.8,29.78,NW,308,8.0,9.0,52,0.00,,---,0.01,VWS V14.01,2013-09-03 22:37:00,
2013-09-03 18:42:00,77.5,58.5,29.79,West,276,2.0,11.0,52,0.00,,---,0.01,VWS V14.01,2013-09-03 22:42:00,
2013-09-03 18:45:00,77.3,58.8,29.79,West,275,3.0,11.0,53,0.00,,---,0.01,VWS V14.01,2013-09-03 22:45:00,
2013-09-03 18:47:00,77.3,58.8,29.79,WNW,290,10.0,10.0,53,0.00,,---,0.01,VWS V14.01,2013-09-03 22:47:00,
2013-09-03 18:52:00,77.1,58.7,29.79,NW,317,4.0,12.0,53,0.00,,---,0.01,VWS V14.01,2013-09-03 22:52:00,
2013-09-03 18:57:00,76.8,58.4,29.79,NNW,333,8.0,12.0,53,0.00,,---,0.01,VWS V14.01,2013-09-03 22:57:00,
2013-09-03 19:00:00,76.6,58.7,29.79,NW,310,5.0,12.0,54,0.00,,---,0.01,VWS V14.01,2013-09-03 23:00:00,
2013-09-03 19:02:00,76.6,58.7,29.79,NW,309,4.0,4.0,54,0.00,,---,0.01,VWS V14.01,2013-09-03 23:02:00,
2013-09-03 19:07:00,76.3,59.0,29.79,NW,319,1.0,6.0,55,0.00,,---,0.01,VWS V14.01,2013-09-03 23:07:00,
2013-09-03 19:12:00,75.9,58.6,29.79,NW,319,0.0,8.0,55,0.00,,---,0.01,VWS V14.01,2013-09-03 23:12:00,
2013-09-03 19:15:00,75.6,58.3,29.79,NW,315,4.0,8.0,55,0.00,,---,0.01,VWS V14.01,2013-09-03 23:15:00,
2013-09-03 19:17:00,75.5,58.7,29.80,NW,309,8.0,8.0,56,0.00,,---,0.01,VWS V14.01,2013-09-03 23:17:00,
2013-09-03 19:22:00,75.1,58.3,29.80,WNW,299,5.0,8.0,56,0.00,,---,0.01,VWS V14.01,2013-09-03 23:22:00,
2013-09-03 19:27:00,74.8,58.1,29.80,NW,309,1.0,8.0,56,0.00,,---,0.01,VWS V14.01,2013-09-03 23:27:00,
2013-09-03 19:30:00,74.6,58.4,29.80,NW,314,2.0,8.0,57,0.00,,---,0.01,VWS V14.01,2013-09-03 23:30:00,
2013-09-03 19:32:00,74.6,58.4,29.80,NW,317,4.0,6.0,57,0.00,,---,0.01,VWS V14.01,2013-09-03 23:32:00,
2013-09-03 19:37:00,74.2,58.0,29.80,NW,317,3.0,8.0,57,0.00,,---,0.01,VWS V14.01,2013-09-03 23:37:00,
2013-09-03 19:42:00,73.9,57.7,29.81,NW,317,3.0,8.0,57,0.00,,---,0.01,VWS V14.01,2013-09-03 23:42:00,
2013-09-03 19:45:00,73.8,57.6,29.81,NW,310,3.0,8.0,57,0.00,,---,0.01,VWS V14.01,2013-09-03 23:45:00,
2013-09-03 19:47:00,73.7,57.5,29.81,NW,319,2.0,6.0,57,0.00,,---,0.01,VWS V14.01,2013-09-03 23:47:00,
2013-09-03 19:52:00,73.5,57.3,29.81,NW,319,3.0,7.0,57,0.00,,---,0.01,VWS V14.01,2013-09-03 23:52:00,
2013-09-03 19:57:00,73.3,57.7,29.82,NW,314,1.0,7.0,58,0.00,,---,0.01,VWS V14.01,2013-09-03 23:57:00,
2013-09-03 20:00:00,73.1,57.5,29.82,NW,314,0.0,7.0,58,0.00,,---,0.01,VWS V14.01,2013-09-04 00:00:00,
2013-09-03 20:02:00,73.0,57.4,29.82,NW,314,0.0,1.0,58,0.00,,---,0.01,VWS V14.01,2013-09-04 00:02:00,
2013-09-03 20:08:00,72.8,57.2,29.82,NW,314,0.0,1.0,58,0.00,,---,0.01,VWS V14.01,2013-09-04 00:08:00,
2013-09-03 20:13:00,72.6,57.0,29.82,NW,314,0.0,1.0,58,0.00,,---,0.01,VWS V14.01,2013-09-04 00:13:00,
2013-09-03 20:15:00,72.4,57.3,29.82,NW,314,0.0,1.0,59,0.00,,---,0.01,VWS V14.01,2013-09-04 00:15:00,
2013-09-03 20:18:00,72.3,57.2,29.82,NW,314,0.0,0.0,59,0.00,,---,0.01,VWS V14.01,2013-09-04 00:18:00,
2013-09-03 20:23:00,72.1,57.0,29.83,NW,314,0.0,1.0,59,0.00,,---,0.01,VWS V14.01,2013-09-04 00:23:00,
2013-09-03 20:28:00,71.7,56.6,29.83,NW,314,0.0,1.0,59,0.00,,---,0.01,VWS V14.01,2013-09-04 00:28:00,
2013-09-03 20:30:00,71.4,56.3,29.83,NW,314,0.0,1.0,59,0.00,,---,0.01,VWS V14.01,2013-09-04 00:30:00,
2013-09-03 20:33:00,71.3,56.2,29.83,NW,314,0.0,0.0,59,0.00,,---,0.01,VWS V14.01,2013-09-04 00:33:00,
2013-09-03 20:38:00,70.6,55.1,29.83,NW,314,0.0,0.0,58,0.00,,---,0.01,VWS V14.01,2013-09-04 00:38:00,
2013-09-03 20:43:00,69.8,54.4,29.83,NW,314,0.0,0.0,58,0.00,,---,0.01,VWS V14.01,2013-09-04 00:43:00,
2013-09-03 20:45:00,69.4,53.5,29.84,NW,314,0.0,0.0,57,0.00,,---,0.01,VWS V14.01,2013-09-04 00:45:00,
2013-09-03 20:48:00,69.2,53.3,29.84,NW,314,0.0,0.0,57,0.00,,---,0.01,VWS V14.01,2013-09-04 00:48:00,
2013-09-03 20:53:00,68.7,52.4,29.84,NW,314,0.0,0.0,56,0.00,,---,0.01,VWS V14.01,2013-09-04 00:53:00,
2013-09-03 20:58:00,68.3,51.0,29.84,NW,314,0.0,0.0,54,0.00,,---,0.01,VWS V14.01,2013-09-04 00:58:00,
2013-09-03 21:00:00,68.0,50.8,29.84,NW,314,0.0,0.0,54,0.00,,---,0.01,VWS V14.01,2013-09-04 01:00:00,
2013-09-03 21:03:00,67.9,50.2,29.84,NW,314,0.0,0.0,53,0.00,,---,0.01,VWS V14.01,2013-09-04 01:03:00,
2013-09-03 21:08:00,67.6,49.4,29.84,NW,314,0.0,0.0,52,0.00,,---,0.01,VWS V14.01,2013-09-04 01:08:00,
2013-09-03 21:13:00,67.3,49.1,29.85,NW,314,0.0,0.0,52,0.00,,---,0.01,VWS V14.01,2013-09-04 01:13:00,
2013-09-03 21:15:00,67.1,49.4,29.85,NW,314,0.0,0.0,53,0.00,,---,0.01,VWS V14.01,2013-09-04 01:15:00,
2013-09-03 21:18:00,67.0,48.8,29.85,NW,314,0.0,0.0,52,0.00,,---,0.01,VWS V14.01,2013-09-04 01:18:00,
2013-09-03 21:23:00,66.8,48.6,29.85,NW,314,0.0,0.0,52,0.00,,---,0.01,VWS V14.01,2013-09-04 01:23:00,
2013-09-03 21:28:00,66.6,47.9,29.85,NW,314,0.0,0.0,51,0.00,,---,0.01,VWS V14.01,2013-09-04 01:28:00,
2013-09-03 21:30:00,66.5,47.8,29.85,NW,314,0.0,0.0,51,0.00,,---,0.01,VWS V14.01,2013-09-04 01:30:00,
2013-09-03 21:33:00,66.3,47.7,29.86,NW,314,0.0,0.0,51,0.00,,---,0.01,VWS V14.01,2013-09-04 01:33:00,
2013-09-03 21:38:00,66.1,46.9,29.86,NW,314,0.0,0.0,50,0.00,,---,0.01,VWS V14.01,2013-09-04 01:38:00,
2013-09-03 21:43:00,65.9,46.8,29.86,NW,314,0.0,0.0,50,0.00,,---,0.01,VWS V14.01,2013-09-04 01:43:00,
2013-09-03 21:45:00,65.8,46.7,29.86,NW,314,0.0,0.0,50,0.00,,---,0.01,VWS V14.01,2013-09-04 01:45:00,
2013-09-03 21:48:00,65.7,46.0,29.86,NW,314,0.0,0.0,49,0.00,,---,0.01,VWS V14.01,2013-09-04 01:48:00,
2013-09-03 21:54:00,65.4,45.2,29.86,NW,314,0.0,0.0,48,0.00,,---,0.01,VWS V14.01,2013-09-04 01:54:00,
2013-09-03 22:00:00,64.9,43.7,29.86,NW,314,0.0,0.0,46,0.00,,---,0.01,VWS V14.01,2013-09-04 02:00:00,
2013-09-03 22:02:00,64.9,43.7,29.86,NW,314,0.0,0.0,46,0.00,,---,0.01,VWS V14.01,2013-09-04 02:02:00,
2013-09-03 22:07:00,64.7,41.7,29.86,NW,314,0.0,0.0,43,0.00,,---,0.01,VWS V14.01,2013-09-04 02:07:00,
2013-09-03 22:12:00,64.5,40.3,29.86,NW,314,0.0,0.0,41,0.00,,---,0.01,VWS V14.01,2013-09-04 02:12:00,
2013-09-03 22:15:00,64.1,39.9,29.87,NW,314,0.0,0.0,41,0.00,,---,0.01,VWS V14.01,2013-09-04 02:15:00,
2013-09-03 22:17:00,64.1,39.9,29.87,NW,314,0.0,0.0,41,0.00,,---,0.01,VWS V14.01,2013-09-04 02:17:00,
2013-09-03 22:22:00,63.9,39.1,29.87,NW,314,0.0,0.0,40,0.00,,---,0.01,VWS V14.01,2013-09-04 02:22:00,
2013-09-03 22:27:00,63.8,39.0,29.87,NW,314,0.0,0.0,40,0.00,,---,0.01,VWS V14.01,2013-09-04 02:27:00,
2013-09-03 22:30:00,63.8,39.0,29.87,NW,314,0.0,0.0,40,0.00,,---,0.01,VWS V14.01,2013-09-04 02:30:00,
2013-09-03 22:32:00,63.7,39.0,29.87,NW,314,0.0,0.0,40,0.00,,---,0.01,VWS V14.01,2013-09-04 02:32:00,
2013-09-03 22:37:00,63.7,39.6,29.88,NW,314,0.0,0.0,41,0.00,,---,0.01,VWS V14.01,2013-09-04 02:37:00,
2013-09-03 22:42:00,63.6,38.9,29.88,NW,314,0.0,0.0,40,0.00,,---,0.01,VWS V14.01,2013-09-04 02:42:00,
2013-09-03 22:45:00,63.6,38.9,29.88,NW,314,0.0,0.0,40,0.00,,---,0.01,VWS V14.01,2013-09-04 02:45:00,
2013-09-03 22:47:00,63.6,38.2,29.88,NW,314,0.0,0.0,39,0.00,,---,0.01,VWS V14.01,2013-09-04 02:47:00,
2013-09-03 22:52:00,63.7,38.3,29.88,NW,314,0.0,0.0,39,0.00,,---,0.01,VWS V14.01,2013-09-04 02:52:00,
2013-09-03 22:57:00,63.6,37.5,29.88,NW,314,0.0,0.0,38,0.00,,---,0.01,VWS V14.01,2013-09-04 02:57:00,
2013-09-03 23:00:00,63.6,38.2,29.88,NW,314,0.0,0.0,39,0.00,,---,0.01,VWS V14.01,2013-09-04 03:00:00,
2013-09-03 23:02:00,63.6,38.2,29.88,NW,314,0.0,0.0,39,0.00,,---,0.01,VWS V14.01,2013-09-04 03:02:00,
2013-09-03 23:07:00,63.5,38.1,29.88,NW,314,0.0,0.0,39,0.00,,---,0.01,VWS V14.01,2013-09-04 03:07:00,
2013-09-03 23:12:00,63.4,38.0,29.88,NW,314,0.0,0.0,39,0.00,,---,0.01,VWS V14.01,2013-09-04 03:12:00,
2013-09-03 23:15:00,63.3,37.3,29.88,NW,314,0.0,0.0,38,0.00,,---,0.01,VWS V14.01,2013-09-04 03:15:00,
2013-09-03 23:17:00,63.2,37.2,29.88,NW,314,0.0,0.0,38,0.00,,---,0.01,VWS V14.01,2013-09-04 03:17:00,
2013-09-03 23:22:00,63.2,37.9,29.88,NW,314,0.0,0.0,39,0.00,,---,0.01,VWS V14.01,2013-09-04 03:22:00,
2013-09-03 23:27:00,63.0,37.7,29.88,NW,314,0.0,0.0,39,0.00,,---,0.01,VWS V14.01,2013-09-04 03:27:00,
2013-09-03 23:30:00,62.9,36.9,29.88,NW,314,0.0,0.0,38,0.00,,---,0.01,VWS V14.01,2013-09-04 03:30:00,
2013-09-03 23:32:00,62.9,36.9,29.88,NW,314,0.0,0.0,38,0.00,,---,0.01,VWS V14.01,2013-09-04 03:32:00,
2013-09-03 23:37:00,62.7,36.1,29.88,NW,314,0.0,1.0,37,0.00,,---,0.01,VWS V14.01,2013-09-04 03:37:00,
2013-09-03 23:42:00,62.6,36.0,29.88,NW,314,0.0,1.0,37,0.00,,---,0.01,VWS V14.01,2013-09-04 03:42:00,
2013-09-03 23:45:00,62.5,35.9,29.88,NW,314,0.0,1.0,37,0.00,,---,0.01,VWS V14.01,2013-09-04 03:45:00,
2013-09-03 23:47:00,62.5,35.9,29.88,NW,314,0.0,1.0,37,0.00,,---,0.01,VWS V14.01,2013-09-04 03:47:00,
2013-09-03 23:53:00,62.5,35.9,29.88,NW,314,0.0,2.0,37,0.00,,---,0.01,VWS V14.01,2013-09-04 03:53:00,
2013-09-03 23:58:00,62.5,35.9,29.88,NW,314,0.0,2.0,37,0.00,,---,0.01,VWS V14.01,2013-09-04 03:58:00,